Terminal Aerodrome Forecast
Issued by NWS Jackson, KY

Home | Current Version | Previous Version | Text Only | Print | Product List | Glossary On
Versions: 1 2 3 4 5 6 7 8 9 10 11 12 13 14 15 16 17 18
000
FTUS43 KJKL 252300
TAFLOZ
TAF
KLOZ 252337Z 2600/2624 VRB04KT P6SM BKN150
     FM260500 VRB04KT P6SM VCSH OVC070
     FM260700 VRB03KT 3SM -RASN BR OVC025
     FM261200 VRB04KT P6SM SCT020 BKN035=

USA.gov is the U.S. government's official web portal to all federal, state and local government web resources and services.